sensor_id;sensor_type;location;lat;lon;timestamp;P1;durP1;ratioP1;P2;durP2;ratioP2
75400;SDS011;63974;47.538;18.972;2023-05-07T00:02:59;7.38;;;4.88;;
75400;SDS011;63974;47.538;18.972;2023-05-07T00:06:04;14.45;;;5.53;;
75400;SDS011;63974;47.538;18.972;2023-05-07T00:09:22;8.65;;;5.10;;
75400;SDS011;63974;47.538;18.972;2023-05-07T00:12:25;8.13;;;5.10;;
75400;SDS011;63974;47.538;18.972;2023-05-07T00:15:28;8.70;;;5.13;;
75400;SDS011;63974;47.538;18.972;2023-05-07T00:18:31;9.18;;;5.38;;
75400;SDS011;63974;47.538;18.972;2023-05-07T00:21:33;6.50;;;5.18;;
75400;SDS011;63974;47.538;18.972;2023-05-07T00:24:36;9.35;;;5.05;;
75400;SDS011;63974;47.538;18.972;2023-05-07T00:27:39;8.25;;;5.30;;
75400;SDS011;63974;47.538;18.972;2023-05-07T00:30:42;7.63;;;5.53;;
75400;SDS011;63974;47.538;18.972;2023-05-07T00:33:45;7.35;;;4.93;;
75400;SDS011;63974;47.538;18.972;2023-05-07T00:36:48;8.05;;;5.05;;
75400;SDS011;63974;47.538;18.972;2023-05-07T00:39:51;7.35;;;5.10;;
75400;SDS011;63974;47.538;18.972;2023-05-07T00:42:54;9.75;;;5.25;;
75400;SDS011;63974;47.538;18.972;2023-05-07T00:46:00;9.70;;;5.37;;
75400;SDS011;63974;47.538;18.972;2023-05-07T00:49:04;10.02;;;5.40;;
75400;SDS011;63974;47.538;18.972;2023-05-07T00:52:07;7.95;;;6.18;;
75400;SDS011;63974;47.538;18.972;2023-05-07T00:55:13;8.48;;;5.35;;
75400;SDS011;63974;47.538;18.972;2023-05-07T00:58:16;8.48;;;5.00;;
75400;SDS011;63974;47.538;18.972;2023-05-07T01:01:19;9.00;;;4.90;;
75400;SDS011;63974;47.538;18.972;2023-05-07T01:04:22;9.38;;;5.72;;
75400;SDS011;63974;47.538;18.972;2023-05-07T01:07:25;10.57;;;5.75;;
75400;SDS011;63974;47.538;18.972;2023-05-07T01:10:29;10.63;;;5.90;;
75400;SDS011;63974;47.538;18.972;2023-05-07T01:13:33;9.85;;;5.75;;
75400;SDS011;63974;47.538;18.972;2023-05-07T01:16:37;8.30;;;5.33;;
75400;SDS011;63974;47.538;18.972;2023-05-07T01:19:41;10.52;;;5.72;;
75400;SDS011;63974;47.538;18.972;2023-05-07T01:22:44;8.48;;;5.32;;
75400;SDS011;63974;47.538;18.972;2023-05-07T01:25:52;7.57;;;5.45;;
75400;SDS011;63974;47.538;18.972;2023-05-07T01:28:57;8.27;;;5.82;;
75400;SDS011;63974;47.538;18.972;2023-05-07T01:32:00;8.80;;;5.50;;
75400;SDS011;63974;47.538;18.972;2023-05-07T01:35:05;8.27;;;5.45;;
75400;SDS011;63974;47.538;18.972;2023-05-07T01:38:12;8.25;;;5.57;;
75400;SDS011;63974;47.538;18.972;2023-05-07T01:41:15;8.20;;;5.47;;
75400;SDS011;63974;47.538;18.972;2023-05-07T01:44:19;11.18;;;5.45;;
75400;SDS011;63974;47.538;18.972;2023-05-07T01:47:22;8.53;;;5.27;;
75400;SDS011;63974;47.538;18.972;2023-05-07T01:50:25;8.32;;;6.32;;
75400;SDS011;63974;47.538;18.972;2023-05-07T01:53:29;10.05;;;6.15;;
75400;SDS011;63974;47.538;18.972;2023-05-07T01:56:38;8.50;;;5.47;;
75400;SDS011;63974;47.538;18.972;2023-05-07T01:59:41;11.43;;;5.55;;
75400;SDS011;63974;47.538;18.972;2023-05-07T02:02:44;7.90;;;4.70;;
75400;SDS011;63974;47.538;18.972;2023-05-07T02:06:05;8.32;;;5.22;;
75400;SDS011;63974;47.538;18.972;2023-05-07T02:09:13;7.75;;;5.93;;
75400;SDS011;63974;47.538;18.972;2023-05-07T02:12:21;6.85;;;5.25;;
75400;SDS011;63974;47.538;18.972;2023-05-07T02:15:25;9.13;;;5.00;;
75400;SDS011;63974;47.538;18.972;2023-05-07T02:18:27;9.63;;;5.43;;
75400;SDS011;63974;47.538;18.972;2023-05-07T02:21:31;8.27;;;5.50;;
75400;SDS011;63974;47.538;18.972;2023-05-07T02:24:34;10.18;;;5.50;;
75400;SDS011;63974;47.538;18.972;2023-05-07T02:27:37;9.45;;;6.03;;
75400;SDS011;63974;47.538;18.972;2023-05-07T02:30:40;8.88;;;5.97;;
75400;SDS011;63974;47.538;18.972;2023-05-07T02:33:44;7.93;;;5.43;;
75400;SDS011;63974;47.538;18.972;2023-05-07T02:36:48;8.93;;;5.40;;
75400;SDS011;63974;47.538;18.972;2023-05-07T02:39:55;10.50;;;6.05;;
75400;SDS011;63974;47.538;18.972;2023-05-07T02:42:58;10.63;;;6.50;;
75400;SDS011;63974;47.538;18.972;2023-05-07T02:46:02;11.57;;;6.22;;
75400;SDS011;63974;47.538;18.972;2023-05-07T02:49:12;9.03;;;5.90;;
75400;SDS011;63974;47.538;18.972;2023-05-07T02:52:15;9.23;;;6.43;;
75400;SDS011;63974;47.538;18.972;2023-05-07T02:55:17;14.65;;;5.80;;
75400;SDS011;63974;47.538;18.972;2023-05-07T02:58:20;9.45;;;5.78;;
75400;SDS011;63974;47.538;18.972;2023-05-07T03:01:23;10.80;;;6.13;;
75400;SDS011;63974;47.538;18.972;2023-05-07T03:04:35;10.53;;;6.50;;
75400;SDS011;63974;47.538;18.972;2023-05-07T03:07:38;11.32;;;6.07;;
75400;SDS011;63974;47.538;18.972;2023-05-07T03:10:41;9.40;;;6.20;;
75400;SDS011;63974;47.538;18.972;2023-05-07T03:13:44;11.15;;;5.88;;
75400;SDS011;63974;47.538;18.972;2023-05-07T03:16:47;11.52;;;6.50;;
75400;SDS011;63974;47.538;18.972;2023-05-07T03:19:51;9.13;;;6.37;;
75400;SDS011;63974;47.538;18.972;2023-05-07T03:22:54;10.82;;;6.70;;
75400;SDS011;63974;47.538;18.972;2023-05-07T03:25:57;8.55;;;5.88;;
75400;SDS011;63974;47.538;18.972;2023-05-07T03:29:01;13.43;;;5.95;;
75400;SDS011;63974;47.538;18.972;2023-05-07T03:32:04;9.93;;;6.35;;
75400;SDS011;63974;47.538;18.972;2023-05-07T03:35:08;8.07;;;5.10;;
75400;SDS011;63974;47.538;18.972;2023-05-07T03:38:11;8.50;;;5.47;;
75400;SDS011;63974;47.538;18.972;2023-05-07T03:41:14;11.02;;;6.22;;
75400;SDS011;63974;47.538;18.972;2023-05-07T03:44:19;9.63;;;6.30;;
75400;SDS011;63974;47.538;18.972;2023-05-07T03:47:24;8.50;;;5.60;;
75400;SDS011;63974;47.538;18.972;2023-05-07T03:50:27;9.67;;;5.63;;
75400;SDS011;63974;47.538;18.972;2023-05-07T03:53:30;11.00;;;5.78;;
75400;SDS011;63974;47.538;18.972;2023-05-07T03:56:33;9.18;;;5.88;;
75400;SDS011;63974;47.538;18.972;2023-05-07T03:59:36;10.52;;;6.05;;
75400;SDS011;63974;47.538;18.972;2023-05-07T04:02:41;9.18;;;5.72;;
75400;SDS011;63974;47.538;18.972;2023-05-07T04:05:44;11.93;;;5.87;;
75400;SDS011;63974;47.538;18.972;2023-05-07T04:08:47;10.23;;;6.13;;
75400;SDS011;63974;47.538;18.972;2023-05-07T04:11:51;11.80;;;6.45;;
75400;SDS011;63974;47.538;18.972;2023-05-07T04:14:54;13.05;;;5.68;;
75400;SDS011;63974;47.538;18.972;2023-05-07T04:17:58;9.60;;;5.72;;
75400;SDS011;63974;47.538;18.972;2023-05-07T04:21:01;9.70;;;6.30;;
75400;SDS011;63974;47.538;18.972;2023-05-07T04:24:05;11.20;;;5.88;;
75400;SDS011;63974;47.538;18.972;2023-05-07T04:27:08;9.85;;;5.85;;
75400;SDS011;63974;47.538;18.972;2023-05-07T04:30:11;11.60;;;6.00;;
75400;SDS011;63974;47.538;18.972;2023-05-07T04:33:16;11.65;;;6.38;;
75400;SDS011;63974;47.538;18.972;2023-05-07T04:36:21;12.53;;;6.50;;
75400;SDS011;63974;47.538;18.972;2023-05-07T04:39:33;8.68;;;5.82;;
75400;SDS011;63974;47.538;18.972;2023-05-07T04:42:38;10.63;;;6.60;;
75400;SDS011;63974;47.538;18.972;2023-05-07T04:45:42;8.52;;;5.88;;
75400;SDS011;63974;47.538;18.972;2023-05-07T04:48:45;13.77;;;6.93;;
75400;SDS011;63974;47.538;18.972;2023-05-07T04:51:48;8.97;;;5.60;;
75400;SDS011;63974;47.538;18.972;2023-05-07T04:54:55;10.60;;;6.07;;
75400;SDS011;63974;47.538;18.972;2023-05-07T04:57:58;10.30;;;6.13;;
75400;SDS011;63974;47.538;18.972;2023-05-07T05:01:05;9.82;;;5.60;;
75400;SDS011;63974;47.538;18.972;2023-05-07T05:04:08;12.38;;;6.10;;
75400;SDS011;63974;47.538;18.972;2023-05-07T05:07:13;10.47;;;5.90;;
75400;SDS011;63974;47.538;18.972;2023-05-07T05:10:16;12.38;;;6.15;;
75400;SDS011;63974;47.538;18.972;2023-05-07T05:13:19;8.52;;;5.82;;
75400;SDS011;63974;47.538;18.972;2023-05-07T05:16:24;11.65;;;6.72;;
75400;SDS011;63974;47.538;18.972;2023-05-07T05:19:28;12.65;;;6.88;;
75400;SDS011;63974;47.538;18.972;2023-05-07T05:22:31;8.13;;;6.03;;
75400;SDS011;63974;47.538;18.972;2023-05-07T05:25:35;12.07;;;6.75;;
75400;SDS011;63974;47.538;18.972;2023-05-07T05:28:39;10.02;;;7.15;;
75400;SDS011;63974;47.538;18.972;2023-05-07T05:31:43;12.18;;;7.00;;
75400;SDS011;63974;47.538;18.972;2023-05-07T05:34:46;11.02;;;7.28;;
75400;SDS011;63974;47.538;18.972;2023-05-07T05:37:49;10.27;;;6.57;;
75400;SDS011;63974;47.538;18.972;2023-05-07T05:40:53;10.23;;;6.47;;
75400;SDS011;63974;47.538;18.972;2023-05-07T05:43:58;9.98;;;6.95;;
75400;SDS011;63974;47.538;18.972;2023-05-07T05:47:01;10.50;;;7.20;;
75400;SDS011;63974;47.538;18.972;2023-05-07T05:50:05;9.50;;;6.82;;
75400;SDS011;63974;47.538;18.972;2023-05-07T05:53:09;10.63;;;7.03;;
75400;SDS011;63974;47.538;18.972;2023-05-07T05:56:12;11.68;;;7.10;;
75400;SDS011;63974;47.538;18.972;2023-05-07T05:59:16;8.63;;;6.03;;
75400;SDS011;63974;47.538;18.972;2023-05-07T06:02:19;10.27;;;7.40;;
75400;SDS011;63974;47.538;18.972;2023-05-07T06:05:23;10.45;;;7.70;;
75400;SDS011;63974;47.538;18.972;2023-05-07T06:08:29;11.90;;;7.53;;
75400;SDS011;63974;47.538;18.972;2023-05-07T06:11:33;14.23;;;8.30;;
75400;SDS011;63974;47.538;18.972;2023-05-07T06:14:36;12.45;;;7.93;;
75400;SDS011;63974;47.538;18.972;2023-05-07T06:17:39;11.68;;;7.45;;
75400;SDS011;63974;47.538;18.972;2023-05-07T06:20:44;10.95;;;7.28;;
75400;SDS011;63974;47.538;18.972;2023-05-07T06:23:55;13.20;;;8.10;;
75400;SDS011;63974;47.538;18.972;2023-05-07T06:26:58;15.88;;;8.07;;
75400;SDS011;63974;47.538;18.972;2023-05-07T06:30:03;13.00;;;8.32;;
75400;SDS011;63974;47.538;18.972;2023-05-07T06:33:06;15.65;;;8.75;;
75400;SDS011;63974;47.538;18.972;2023-05-07T06:36:09;12.80;;;8.38;;
75400;SDS011;63974;47.538;18.972;2023-05-07T06:39:14;13.67;;;9.27;;
75400;SDS011;63974;47.538;18.972;2023-05-07T06:42:18;12.23;;;8.40;;
75400;SDS011;63974;47.538;18.972;2023-05-07T06:45:23;12.52;;;8.70;;
75400;SDS011;63974;47.538;18.972;2023-05-07T06:48:29;12.73;;;8.52;;
75400;SDS011;63974;47.538;18.972;2023-05-07T06:51:37;12.35;;;7.78;;
75400;SDS011;63974;47.538;18.972;2023-05-07T06:54:41;11.67;;;8.70;;
75400;SDS011;63974;47.538;18.972;2023-05-07T06:57:48;13.65;;;8.73;;
75400;SDS011;63974;47.538;18.972;2023-05-07T07:00:53;12.18;;;8.35;;
75400;SDS011;63974;47.538;18.972;2023-05-07T07:03:56;14.00;;;8.20;;
75400;SDS011;63974;47.538;18.972;2023-05-07T07:06:59;14.70;;;10.05;;
75400;SDS011;63974;47.538;18.972;2023-05-07T07:10:04;12.57;;;9.07;;
75400;SDS011;63974;47.538;18.972;2023-05-07T07:13:07;10.88;;;7.90;;
75400;SDS011;63974;47.538;18.972;2023-05-07T07:16:10;11.90;;;8.60;;
75400;SDS011;63974;47.538;18.972;2023-05-07T07:19:14;11.07;;;7.90;;
75400;SDS011;63974;47.538;18.972;2023-05-07T07:22:18;10.70;;;8.18;;
75400;SDS011;63974;47.538;18.972;2023-05-07T07:25:22;11.47;;;8.43;;
75400;SDS011;63974;47.538;18.972;2023-05-07T07:28:26;11.40;;;8.88;;
75400;SDS011;63974;47.538;18.972;2023-05-07T07:31:28;12.35;;;9.02;;
75400;SDS011;63974;47.538;18.972;2023-05-07T07:34:32;11.48;;;8.02;;
75400;SDS011;63974;47.538;18.972;2023-05-07T07:37:36;9.77;;;7.93;;
75400;SDS011;63974;47.538;18.972;2023-05-07T07:40:40;9.03;;;7.13;;
75400;SDS011;63974;47.538;18.972;2023-05-07T07:43:43;9.57;;;6.63;;
75400;SDS011;63974;47.538;18.972;2023-05-07T07:46:46;9.80;;;6.70;;
75400;SDS011;63974;47.538;18.972;2023-05-07T07:49:49;10.02;;;7.05;;
75400;SDS011;63974;47.538;18.972;2023-05-07T07:52:53;9.95;;;6.88;;
75400;SDS011;63974;47.538;18.972;2023-05-07T07:55:56;7.77;;;6.40;;
75400;SDS011;63974;47.538;18.972;2023-05-07T07:59:04;8.25;;;6.50;;
75400;SDS011;63974;47.538;18.972;2023-05-07T08:02:08;7.30;;;5.70;;
75400;SDS011;63974;47.538;18.972;2023-05-07T08:05:12;7.65;;;5.43;;
75400;SDS011;63974;47.538;18.972;2023-05-07T08:08:15;6.90;;;5.72;;
75400;SDS011;63974;47.538;18.972;2023-05-07T08:11:18;8.13;;;5.13;;
75400;SDS011;63974;47.538;18.972;2023-05-07T08:14:22;7.15;;;5.18;;
75400;SDS011;63974;47.538;18.972;2023-05-07T08:17:26;7.05;;;5.70;;
75400;SDS011;63974;47.538;18.972;2023-05-07T08:20:31;7.45;;;6.35;;
75400;SDS011;63974;47.538;18.972;2023-05-07T08:23:35;7.72;;;5.97;;
75400;SDS011;63974;47.538;18.972;2023-05-07T08:26:39;8.00;;;6.60;;
75400;SDS011;63974;47.538;18.972;2023-05-07T08:29:44;10.55;;;7.03;;
75400;SDS011;63974;47.538;18.972;2023-05-07T08:32:51;8.95;;;6.40;;
75400;SDS011;63974;47.538;18.972;2023-05-07T08:35:54;8.20;;;6.75;;
75400;SDS011;63974;47.538;18.972;2023-05-07T08:38:58;7.30;;;6.22;;
75400;SDS011;63974;47.538;18.972;2023-05-07T08:42:01;10.07;;;7.33;;
75400;SDS011;63974;47.538;18.972;2023-05-07T08:45:09;8.60;;;6.95;;
75400;SDS011;63974;47.538;18.972;2023-05-07T08:48:16;10.98;;;7.90;;
75400;SDS011;63974;47.538;18.972;2023-05-07T08:51:29;9.55;;;7.45;;
75400;SDS011;63974;47.538;18.972;2023-05-07T08:54:32;13.13;;;8.93;;
75400;SDS011;63974;47.538;18.972;2023-05-07T08:57:36;12.03;;;8.57;;
75400;SDS011;63974;47.538;18.972;2023-05-07T09:00:43;11.35;;;8.43;;
75400;SDS011;63974;47.538;18.972;2023-05-07T09:03:46;9.35;;;7.35;;
75400;SDS011;63974;47.538;18.972;2023-05-07T09:06:51;9.63;;;8.20;;
75400;SDS011;63974;47.538;18.972;2023-05-07T09:09:56;10.25;;;7.70;;
75400;SDS011;63974;47.538;18.972;2023-05-07T09:13:00;12.77;;;9.73;;
75400;SDS011;63974;47.538;18.972;2023-05-07T09:16:10;9.13;;;8.10;;
75400;SDS011;63974;47.538;18.972;2023-05-07T09:19:21;11.05;;;8.25;;
75400;SDS011;63974;47.538;18.972;2023-05-07T09:22:33;10.55;;;8.13;;
75400;SDS011;63974;47.538;18.972;2023-05-07T09:25:42;9.98;;;8.10;;
75400;SDS011;63974;47.538;18.972;2023-05-07T09:28:53;11.57;;;7.70;;
75400;SDS011;63974;47.538;18.972;2023-05-07T09:31:56;11.73;;;8.88;;
75400;SDS011;63974;47.538;18.972;2023-05-07T09:34:59;12.73;;;8.55;;
75400;SDS011;63974;47.538;18.972;2023-05-07T09:38:03;9.32;;;8.07;;
75400;SDS011;63974;47.538;18.972;2023-05-07T09:41:12;10.20;;;7.78;;
75400;SDS011;63974;47.538;18.972;2023-05-07T09:44:27;11.23;;;8.07;;
75400;SDS011;63974;47.538;18.972;2023-05-07T09:47:30;10.80;;;7.38;;
75400;SDS011;63974;47.538;18.972;2023-05-07T09:50:36;9.70;;;7.88;;
75400;SDS011;63974;47.538;18.972;2023-05-07T09:53:42;9.13;;;6.97;;
75400;SDS011;63974;47.538;18.972;2023-05-07T09:56:48;6.88;;;6.03;;
75400;SDS011;63974;47.538;18.972;2023-05-07T09:59:53;6.63;;;5.77;;
75400;SDS011;63974;47.538;18.972;2023-05-07T10:03:00;7.40;;;5.97;;
75400;SDS011;63974;47.538;18.972;2023-05-07T10:06:14;7.55;;;6.38;;
75400;SDS011;63974;47.538;18.972;2023-05-07T10:09:17;10.05;;;7.10;;
75400;SDS011;63974;47.538;18.972;2023-05-07T10:12:21;9.25;;;8.15;;
75400;SDS011;63974;47.538;18.972;2023-05-07T10:15:26;9.70;;;7.70;;
75400;SDS011;63974;47.538;18.972;2023-05-07T10:18:32;10.10;;;7.50;;
75400;SDS011;63974;47.538;18.972;2023-05-07T10:21:44;7.03;;;6.22;;
75400;SDS011;63974;47.538;18.972;2023-05-07T10:24:57;9.70;;;6.60;;
75400;SDS011;63974;47.538;18.972;2023-05-07T10:28:06;8.75;;;7.82;;
75400;SDS011;63974;47.538;18.972;2023-05-07T10:31:23;7.27;;;6.53;;
75400;SDS011;63974;47.538;18.972;2023-05-07T10:34:53;8.35;;;6.32;;
75400;SDS011;63974;47.538;18.972;2023-05-07T10:37:58;8.73;;;6.18;;
75400;SDS011;63974;47.538;18.972;2023-05-07T10:41:04;7.38;;;6.03;;
75400;SDS011;63974;47.538;18.972;2023-05-07T10:44:12;7.63;;;6.50;;
75400;SDS011;63974;47.538;18.972;2023-05-07T10:47:28;8.50;;;7.07;;
75400;SDS011;63974;47.538;18.972;2023-05-07T10:50:35;8.00;;;6.65;;
75400;SDS011;63974;47.538;18.972;2023-05-07T10:53:40;8.32;;;7.03;;
75400;SDS011;63974;47.538;18.972;2023-05-07T10:56:50;7.30;;;6.43;;
75400;SDS011;63974;47.538;18.972;2023-05-07T10:59:58;9.52;;;7.13;;
75400;SDS011;63974;47.538;18.972;2023-05-07T11:03:06;7.20;;;6.50;;
75400;SDS011;63974;47.538;18.972;2023-05-07T11:06:32;10.05;;;7.28;;
75400;SDS011;63974;47.538;18.972;2023-05-07T11:13:02;8.00;;;7.20;;
75400;SDS011;63974;47.538;18.972;2023-05-07T11:16:16;7.72;;;6.93;;
75400;SDS011;63974;47.538;18.972;2023-05-07T11:26:54;6.85;;;5.82;;
75400;SDS011;63974;47.538;18.972;2023-05-07T11:29:59;7.22;;;6.47;;
75400;SDS011;63974;47.538;18.972;2023-05-07T11:33:05;8.82;;;6.45;;
75400;SDS011;63974;47.538;18.972;2023-05-07T11:36:08;7.67;;;6.87;;
75400;SDS011;63974;47.538;18.972;2023-05-07T11:42:28;6.97;;;6.28;;
75400;SDS011;63974;47.538;18.972;2023-05-07T11:45:33;6.63;;;6.03;;
75400;SDS011;63974;47.538;18.972;2023-05-07T11:48:38;7.45;;;6.75;;
75400;SDS011;63974;47.538;18.972;2023-05-07T11:51:41;7.83;;;7.03;;
75400;SDS011;63974;47.538;18.972;2023-05-07T11:54:50;7.57;;;6.72;;
75400;SDS011;63974;47.538;18.972;2023-05-07T11:57:57;6.70;;;6.10;;
75400;SDS011;63974;47.538;18.972;2023-05-07T12:01:00;7.13;;;6.43;;
75400;SDS011;63974;47.538;18.972;2023-05-07T12:04:04;8.38;;;6.75;;
75400;SDS011;63974;47.538;18.972;2023-05-07T12:07:11;7.10;;;6.40;;
75400;SDS011;63974;47.538;18.972;2023-05-07T12:10:17;7.78;;;7.03;;
75400;SDS011;63974;47.538;18.972;2023-05-07T12:13:24;7.95;;;6.88;;
75400;SDS011;63974;47.538;18.972;2023-05-07T12:16:28;6.85;;;6.18;;
75400;SDS011;63974;47.538;18.972;2023-05-07T12:19:32;7.27;;;6.50;;
75400;SDS011;63974;47.538;18.972;2023-05-07T12:22:36;7.60;;;5.53;;
75400;SDS011;63974;47.538;18.972;2023-05-07T12:25:39;6.13;;;5.30;;
75400;SDS011;63974;47.538;18.972;2023-05-07T12:28:49;5.97;;;5.35;;
75400;SDS011;63974;47.538;18.972;2023-05-07T12:31:51;6.10;;;5.60;;
75400;SDS011;63974;47.538;18.972;2023-05-07T12:34:55;6.97;;;5.45;;
75400;SDS011;63974;47.538;18.972;2023-05-07T12:37:59;6.30;;;5.70;;
75400;SDS011;63974;47.538;18.972;2023-05-07T12:41:07;5.97;;;5.38;;
75400;SDS011;63974;47.538;18.972;2023-05-07T12:44:11;6.47;;;5.88;;
75400;SDS011;63974;47.538;18.972;2023-05-07T12:47:14;6.00;;;5.50;;
75400;SDS011;63974;47.538;18.972;2023-05-07T12:50:17;5.97;;;4.93;;
75400;SDS011;63974;47.538;18.972;2023-05-07T12:53:21;5.93;;;4.57;;
75400;SDS011;63974;47.538;18.972;2023-05-07T12:56:24;5.72;;;4.82;;
75400;SDS011;63974;47.538;18.972;2023-05-07T12:59:34;5.05;;;4.55;;
75400;SDS011;63974;47.538;18.972;2023-05-07T13:02:39;5.90;;;4.95;;
75400;SDS011;63974;47.538;18.972;2023-05-07T13:05:43;10.07;;;6.88;;
75400;SDS011;63974;47.538;18.972;2023-05-07T13:08:46;14.33;;;8.10;;
75400;SDS011;63974;47.538;18.972;2023-05-07T13:11:49;11.50;;;7.22;;
75400;SDS011;63974;47.538;18.972;2023-05-07T13:14:52;8.98;;;7.25;;
75400;SDS011;63974;47.538;18.972;2023-05-07T13:17:55;10.98;;;7.60;;
75400;SDS011;63974;47.538;18.972;2023-05-07T13:20:58;9.75;;;8.30;;
75400;SDS011;63974;47.538;18.972;2023-05-07T13:24:02;9.77;;;7.43;;
75400;SDS011;63974;47.538;18.972;2023-05-07T13:27:05;9.57;;;7.78;;
75400;SDS011;63974;47.538;18.972;2023-05-07T13:30:08;10.50;;;8.45;;
75400;SDS011;63974;47.538;18.972;2023-05-07T13:33:11;8.68;;;7.78;;
75400;SDS011;63974;47.538;18.972;2023-05-07T13:36:14;8.43;;;7.72;;
75400;SDS011;63974;47.538;18.972;2023-05-07T13:39:17;7.83;;;7.13;;
75400;SDS011;63974;47.538;18.972;2023-05-07T13:42:20;8.40;;;7.60;;
75400;SDS011;63974;47.538;18.972;2023-05-07T13:45:23;7.25;;;6.40;;
75400;SDS011;63974;47.538;18.972;2023-05-07T13:48:28;8.75;;;6.95;;
75400;SDS011;63974;47.538;18.972;2023-05-07T13:51:32;8.63;;;7.35;;
75400;SDS011;63974;47.538;18.972;2023-05-07T13:54:35;6.53;;;6.00;;
75400;SDS011;63974;47.538;18.972;2023-05-07T13:57:38;7.00;;;6.30;;
75400;SDS011;63974;47.538;18.972;2023-05-07T14:00:43;7.22;;;6.55;;
75400;SDS011;63974;47.538;18.972;2023-05-07T14:03:46;6.57;;;5.97;;
75400;SDS011;63974;47.538;18.972;2023-05-07T14:06:49;6.13;;;5.50;;
75400;SDS011;63974;47.538;18.972;2023-05-07T14:09:54;7.47;;;5.73;;
75400;SDS011;63974;47.538;18.972;2023-05-07T14:12:57;6.07;;;5.47;;
75400;SDS011;63974;47.538;18.972;2023-05-07T14:16:00;5.63;;;4.95;;
75400;SDS011;63974;47.538;18.972;2023-05-07T14:19:03;5.05;;;4.55;;
75400;SDS011;63974;47.538;18.972;2023-05-07T14:22:06;6.50;;;4.90;;
75400;SDS011;63974;47.538;18.972;2023-05-07T14:25:09;4.87;;;4.47;;
75400;SDS011;63974;47.538;18.972;2023-05-07T14:28:12;6.15;;;5.35;;
75400;SDS011;63974;47.538;18.972;2023-05-07T14:31:15;5.90;;;5.30;;
75400;SDS011;63974;47.538;18.972;2023-05-07T14:34:18;5.72;;;5.20;;
75400;SDS011;63974;47.538;18.972;2023-05-07T14:37:21;4.70;;;4.28;;
75400;SDS011;63974;47.538;18.972;2023-05-07T14:40:24;5.40;;;4.90;;
75400;SDS011;63974;47.538;18.972;2023-05-07T14:43:26;5.43;;;4.93;;
75400;SDS011;63974;47.538;18.972;2023-05-07T14:46:29;5.25;;;4.00;;
75400;SDS011;63974;47.538;18.972;2023-05-07T14:49:33;4.85;;;4.35;;
75400;SDS011;63974;47.538;18.972;2023-05-07T14:52:36;5.23;;;4.83;;
75400;SDS011;63974;47.538;18.972;2023-05-07T14:55:39;6.07;;;5.47;;
75400;SDS011;63974;47.538;18.972;2023-05-07T14:58:43;5.43;;;4.93;;
75400;SDS011;63974;47.538;18.972;2023-05-07T15:01:46;5.78;;;5.28;;
75400;SDS011;63974;47.538;18.972;2023-05-07T15:04:50;5.63;;;5.13;;
75400;SDS011;63974;47.538;18.972;2023-05-07T15:07:53;5.10;;;4.60;;
75400;SDS011;63974;47.538;18.972;2023-05-07T15:10:58;5.43;;;5.00;;
75400;SDS011;63974;47.538;18.972;2023-05-07T15:14:01;5.85;;;5.35;;
75400;SDS011;63974;47.538;18.972;2023-05-07T15:17:04;5.07;;;4.60;;
75400;SDS011;63974;47.538;18.972;2023-05-07T15:20:07;5.13;;;4.63;;
75400;SDS011;63974;47.538;18.972;2023-05-07T15:23:10;5.18;;;4.78;;
75400;SDS011;63974;47.538;18.972;2023-05-07T15:26:20;5.70;;;5.10;;
75400;SDS011;63974;47.538;18.972;2023-05-07T15:29:23;5.80;;;5.30;;
75400;SDS011;63974;47.538;18.972;2023-05-07T15:32:27;4.90;;;4.50;;
75400;SDS011;63974;47.538;18.972;2023-05-07T15:35:30;6.15;;;5.65;;
75400;SDS011;63974;47.538;18.972;2023-05-07T15:38:33;5.47;;;5.00;;
75400;SDS011;63974;47.538;18.972;2023-05-07T15:41:36;5.80;;;5.30;;
75400;SDS011;63974;47.538;18.972;2023-05-07T15:44:39;6.20;;;5.65;;
75400;SDS011;63974;47.538;18.972;2023-05-07T15:47:42;5.43;;;4.90;;
75400;SDS011;63974;47.538;18.972;2023-05-07T15:50:45;6.18;;;5.57;;
75400;SDS011;63974;47.538;18.972;2023-05-07T15:53:48;7.93;;;6.07;;
75400;SDS011;63974;47.538;18.972;2023-05-07T15:56:53;7.07;;;6.37;;
75400;SDS011;63974;47.538;18.972;2023-05-07T15:59:56;5.90;;;5.40;;
75400;SDS011;63974;47.538;18.972;2023-05-07T16:02:59;5.88;;;5.38;;
75400;SDS011;63974;47.538;18.972;2023-05-07T16:06:02;5.45;;;4.95;;
75400;SDS011;63974;47.538;18.972;2023-05-07T16:09:05;6.47;;;5.70;;
75400;SDS011;63974;47.538;18.972;2023-05-07T16:12:08;6.77;;;5.03;;
75400;SDS011;63974;47.538;18.972;2023-05-07T16:15:11;6.47;;;5.88;;
75400;SDS011;63974;47.538;18.972;2023-05-07T16:18:15;6.32;;;5.72;;
75400;SDS011;63974;47.538;18.972;2023-05-07T16:21:18;6.05;;;5.45;;
75400;SDS011;63974;47.538;18.972;2023-05-07T16:24:21;5.82;;;5.25;;
75400;SDS011;63974;47.538;18.972;2023-05-07T16:27:24;5.67;;;5.17;;
75400;SDS011;63974;47.538;18.972;2023-05-07T16:30:27;5.88;;;5.38;;
75400;SDS011;63974;47.538;18.972;2023-05-07T16:33:30;5.40;;;4.85;;
75400;SDS011;63974;47.538;18.972;2023-05-07T16:36:33;6.30;;;5.10;;
75400;SDS011;63974;47.538;18.972;2023-05-07T16:39:36;7.43;;;4.90;;
75400;SDS011;63974;47.538;18.972;2023-05-07T16:42:39;6.27;;;5.40;;
75400;SDS011;63974;47.538;18.972;2023-05-07T16:45:43;5.30;;;4.80;;
75400;SDS011;63974;47.538;18.972;2023-05-07T16:48:46;6.53;;;4.85;;
75400;SDS011;63974;47.538;18.972;2023-05-07T16:51:49;5.93;;;5.40;;
75400;SDS011;63974;47.538;18.972;2023-05-07T16:54:52;6.15;;;5.55;;
75400;SDS011;63974;47.538;18.972;2023-05-07T16:57:59;6.07;;;5.30;;
75400;SDS011;63974;47.538;18.972;2023-05-07T17:01:02;7.85;;;6.10;;
75400;SDS011;63974;47.538;18.972;2023-05-07T17:04:05;6.15;;;5.55;;
75400;SDS011;63974;47.538;18.972;2023-05-07T17:07:08;6.28;;;5.60;;
75400;SDS011;63974;47.538;18.972;2023-05-07T17:10:11;6.93;;;6.15;;
75400;SDS011;63974;47.538;18.972;2023-05-07T17:13:14;8.03;;;6.97;;
75400;SDS011;63974;47.538;18.972;2023-05-07T17:16:17;7.90;;;6.43;;
75400;SDS011;63974;47.538;18.972;2023-05-07T17:19:20;7.78;;;6.30;;
75400;SDS011;63974;47.538;18.972;2023-05-07T17:22:23;7.93;;;6.93;;
75400;SDS011;63974;47.538;18.972;2023-05-07T17:25:26;8.57;;;6.10;;
75400;SDS011;63974;47.538;18.972;2023-05-07T17:28:29;8.83;;;7.00;;
75400;SDS011;63974;47.538;18.972;2023-05-07T17:31:32;10.27;;;6.95;;
75400;SDS011;63974;47.538;18.972;2023-05-07T17:34:34;8.88;;;6.40;;
75400;SDS011;63974;47.538;18.972;2023-05-07T17:37:37;9.48;;;6.68;;
75400;SDS011;63974;47.538;18.972;2023-05-07T17:40:40;8.27;;;6.30;;
75400;SDS011;63974;47.538;18.972;2023-05-07T17:43:43;8.10;;;6.67;;
75400;SDS011;63974;47.538;18.972;2023-05-07T17:46:46;8.73;;;7.00;;
75400;SDS011;63974;47.538;18.972;2023-05-07T17:49:48;7.35;;;5.97;;
75400;SDS011;63974;47.538;18.972;2023-05-07T17:52:51;8.63;;;6.95;;
75400;SDS011;63974;47.538;18.972;2023-05-07T17:55:54;8.07;;;7.28;;
75400;SDS011;63974;47.538;18.972;2023-05-07T17:58:57;9.00;;;6.93;;
75400;SDS011;63974;47.538;18.972;2023-05-07T18:02:01;10.23;;;7.82;;
75400;SDS011;63974;47.538;18.972;2023-05-07T18:05:03;11.55;;;8.48;;
75400;SDS011;63974;47.538;18.972;2023-05-07T18:08:06;10.50;;;8.98;;
75400;SDS011;63974;47.538;18.972;2023-05-07T18:11:09;11.27;;;8.65;;
75400;SDS011;63974;47.538;18.972;2023-05-07T18:14:12;10.47;;;8.60;;
75400;SDS011;63974;47.538;18.972;2023-05-07T18:17:15;12.55;;;9.07;;
75400;SDS011;63974;47.538;18.972;2023-05-07T18:20:18;12.75;;;9.05;;
75400;SDS011;63974;47.538;18.972;2023-05-07T18:23:21;12.05;;;9.20;;
75400;SDS011;63974;47.538;18.972;2023-05-07T18:26:24;11.40;;;9.07;;